TOURFACTS.DK  
Stats and Facts from Tour de France.

Tour de France 2019 starts in 320 days
  Riders   Stages   Teams   Summits   Yearly  


 
Search by year

After 2018 - Stage 21:
 15000 starters.
  5165 different riders.
  638 teams.
  2253 stages.
  456 restdays.
  442940.60 km.
  5684 abandonnees.


Top 3
GC
Geraint Thomas83:17:13
Tom Dumoulin83:19:04
Christopher Froome83:19:37
Climb
Julian Alaphilippe170 pt.
Warren Barguil91 pt.
Rafal Majka76 pt.
Sprint
Peter Sagan477 pt.
Alexander Kristoff246 pt.
Arnaud Démare203 pt.
Youth
Pierre-Roger Latou..83:39:26
Egan Bernal83:45:05
Guillaume Martin84:01:31
Facts from Tour de France 2017
  |   Stages.  |   Stage winners.  |   Days in yellow  |   Average speed.  |   Route.  |   Teams.  |   All riders.  |   Rookies.  |  

  |   Withdrawls.  |   GC.  |   Polka  |   Green  |   White  |   Summits. (In tour)  |   Miscellaneous.  |  

Stage 9 on 09 - 07 - 2017
         Owning:    Christopher Froome      Warren Barguil      Marcel Kittel      Simon Yates  

Pick a stage:  1 2 3 4 5 6 7 8 9 10 11 12 13 14 15 16 17 18 19 20 21
  NantuaChambéry | Dist: 181.50 km.
Cat: 2Côte des NeyrollesFRAThibaut Pinot5 points 
Cat: 3Col de BérentinFRAThibaut Pinot2 points 
Cat: 3Côte de FranclensBELThomas De Gendt2 points 
Cat: HCol de la BicheSLOPrimoz Roglic20 points 
Cat: HCol du Grand ColombierFRAWarren Barguil20 points 
Cat: 4Côte de JongieuxBELJan Bakelants1 points 
Cat: HMont du ChatFRAWarren Barguil20 points 

Average speed for all riders in stage:  32,659 km./hr.
    Place:Name:Team:Time:Km/h:
1
COLRigoberto UránUSACannondale-Drapac Pro Cycling ..05:07:22  +  00:00:00=35,430 
2
FRAWarren BarguilDEUTeam Sunweb05:07:22  +  00:00:00=35,430 
3
KENChristopher FroomeGBRSky Procycling05:07:22  +  00:00:00=35,430 
44 FRARomain BardetFRAAg2r La Mondiale05:07:22  +  00:00:00=35,430 
55 ITAFabio AruKAZAstana Pro Team05:07:22  +  00:00:00=35,430 
66 SUIJakob FuglsangKAZAstana Pro Team05:07:22  +  00:00:00=35,430 
77 NZLGeorge BennettNLDTeam Lotto NL - Jumbo05:08:37  +  00:01:15=35,286 
88 ESPMikel Landa MeanaGBRSky Procycling05:08:37  +  00:01:15=35,286 
99 ENGDaniel MartinBELQuick-Step Floors05:08:37  +  00:01:15=35,286 
1010 COLNairo QuintanaESPMovistar Team05:08:37  +  00:01:15=35,286 
1111 ENGSimon YatesAUSOrica - Scott05:08:37  +  00:01:15=35,286 
1212 BELTiesj BenootBELLotto Soudal05:10:54  +  00:03:32=35,027 
1313 ESPMikel NieveGBRSky Procycling05:10:54  +  00:03:32=35,027 
1414 RSALouis MeintjesUAEUAE Team Emirates05:10:54  +  00:03:32=35,027 
1515 FRAPierre-Roger LatourFRAAg2r La Mondiale05:11:41  +  00:04:19=34,939 
1616 FRAAlexis VuillermozFRAAg2r La Mondiale05:11:41  +  00:04:19=34,939 
1717 COLSergio Luis HenaoGBRSky Procycling05:11:41  +  00:04:19=34,939 
1818 ITADamiano CarusoUSABMC Racing Team05:11:41  +  00:04:19=34,939 
1919 SLOPrimoz RoglicNLDTeam Lotto NL - Jumbo05:11:41  +  00:04:19=34,939 
2020 ESPAlberto ContadorUSATrek - Segafredo05:11:41  +  00:04:19=34,939 
2121 NEDBauke MollemaUSATrek - Segafredo05:12:12  +  00:04:50=34,881 
2222 BELJan BakelantsFRAAg2r La Mondiale05:13:39  +  00:06:17=34,720 
2323 ESPDaniel NavarroFRACofidis – Solutions Crédits05:13:39  +  00:06:17=34,720 
2424 GEREmanuel BuchmannDEUBora–Hansgrohe05:14:35  +  00:07:13=34,617 
2525 COLCarlos Alberto BetancurESPMovistar Team05:14:35  +  00:07:13=34,617 
2626 FRABrice FeilluFRAFortuneo - Vital Concept05:15:29  +  00:08:07=34,518 
2727 FRATony GallopinBELLotto Soudal05:15:29  +  00:08:07=34,518 
2828 COLJarlinson Pantano GomezUSATrek - Segafredo05:15:29  +  00:08:07=34,518 
2929 GERGianluca BrambillaBELQuick-Step Floors05:20:18  +  00:12:56=33,999 
3030 FRAGuillaume MartinBELWanty – Groupe Gobert05:20:18  +  00:12:56=33,999 
3131 LUXBen GastauerFRAAg2r La Mondiale05:21:41  +  00:14:19=33,853 
3232 GERSimon GeschkeDEUTeam Sunweb05:21:41  +  00:14:19=33,853 
3333 FRASylvain ChavanelFRADirect Energie05:21:41  +  00:14:19=33,853 
3434 CZERoman KreuzigerAUSOrica - Scott05:25:43  +  00:18:21=33,434 
3535 FRANicolas EdetFRACofidis – Solutions Crédits05:25:43  +  00:18:21=33,434 
3636 FRAPierre RollandUSACannondale-Drapac Pro Cycling ..05:25:43  +  00:18:21=33,434 
3737 FRAAxel DomontFRAAg2r La Mondiale05:25:43  +  00:18:21=33,434 
3838 NEDLaurens ten DamDEUTeam Sunweb05:29:15  +  00:21:53=33,075 
3939 FRAAmaël MoinardUSABMC Racing Team05:32:26  +  00:25:04=32,758 
4040 NEDDylan Van BaarleUSACannondale-Drapac Pro Cycling ..05:32:26  +  00:25:04=32,758 
4141 KAZBakhtiyar KozhatayevKAZAstana Pro Team05:32:26  +  00:25:04=32,758 
4242 ITAAlessandro De MarchiUSABMC Racing Team05:32:26  +  00:25:04=32,758 
4343 SLOJanez BrajkovicBHRBahrain-Merida05:33:29  +  00:26:07=32,655 
4444 HRVKristijan DurasekUAEUAE Team Emirates05:33:29  +  00:26:07=32,655 
4545 KAZAndrey ZeitsKAZAstana Pro Team05:33:29  +  00:26:07=32,655 
4646 DENLars BakBELLotto Soudal05:34:32  +  00:27:10=32,553 
4747 FRAYoann OffredoBELWanty – Groupe Gobert05:34:32  +  00:27:10=32,553 
4848 BELPhilippe GilbertBELQuick-Step Floors05:34:32  +  00:27:10=32,553 
4949 BELThomas De GendtBELLotto Soudal05:34:32  +  00:27:10=32,553 
5050 BELSerge PauwelsZAFDimension Data05:34:32  +  00:27:10=32,553 
5151 ESPJonathan CastroviejoESPMovistar Team05:34:32  +  00:27:10=32,553 
5252 SUIMathias FrankFRAAg2r La Mondiale05:34:32  +  00:27:10=32,553 
5353 GERPaul MartensNLDTeam Lotto NL - Jumbo05:34:32  +  00:27:10=32,553 
5454 NEDMarco MinnaardBELWanty – Groupe Gobert05:34:32  +  00:27:10=32,553 
5555 NORVegard Stake LaengenUAEUAE Team Emirates05:34:32  +  00:27:10=32,553 
5656 FRAThomas VoecklerFRADirect Energie05:34:32  +  00:27:10=32,553 
5757 BELGreg Van AvermaetUSABMC Racing Team05:34:32  +  00:27:10=32,553 
5858 CZEZdenek StybarBELQuick-Step Floors05:34:32  +  00:27:10=32,553 
5959 BELOliver NaesenFRAAg2r La Mondiale05:34:32  +  00:27:10=32,553 
6060 ESPLuis Angel MateFRACofidis – Solutions Crédits05:34:32  +  00:27:10=32,553 
6161 FRAElie GesbertFRAFortuneo - Vital Concept05:34:32  +  00:27:10=32,553 
6262 FRAPierre-Luc PérichonFRAFortuneo - Vital Concept05:34:32  +  00:27:10=32,553 
6363 FRANicolas RocheUSABMC Racing Team05:34:32  +  00:27:10=32,553 
6464 DENMichael ValgrenKAZAstana Pro Team05:34:32  +  00:27:10=32,553 
6565 ITADiego UlissiUAEUAE Team Emirates05:34:32  +  00:27:10=32,553 
6666 BELPieter VanspeybrouckBELWanty – Groupe Gobert05:34:32  +  00:27:10=32,553 
6767 BELJens KeukeleireAUSOrica - Scott05:34:32  +  00:27:10=32,553 
6868 AUSAdam HansenBELLotto Soudal05:34:32  +  00:27:10=32,553 
6969 CZEOndrej CinkBHRBahrain-Merida05:34:32  +  00:27:10=32,553 
7070 FRAThibaut PinotFRAFDJ05:34:32  +  00:27:10=32,553 
7171 GERTony MartinCHETeam Katusha - Alpecin05:34:32  +  00:27:10=32,553 
7272 FRAArthur VichotFRAFDJ05:34:32  +  00:27:10=32,553 
7373 SUIDanilo WyssUSABMC Racing Team05:34:32  +  00:27:10=32,553 
7474 GERNils PolittCHETeam Katusha - Alpecin05:34:32  +  00:27:10=32,553 
7575 AUSSimon ClarkeUSACannondale-Drapac Pro Cycling ..05:34:32  +  00:27:10=32,553 
7676 NEDKoen De KortUSATrek - Segafredo05:34:32  +  00:27:10=32,553 
7777 ESPHaimar ZubeldiaUSATrek - Segafredo05:34:32  +  00:27:10=32,553 
7878 SUIMichael SchärUSABMC Racing Team05:34:32  +  00:27:10=32,553 
7979 FRAPerrig QuemeneurFRADirect Energie05:34:32  +  00:27:10=32,553 
8080 CRCAndrey AmadorESPMovistar Team05:34:32  +  00:27:10=32,553 
8181 BELThomas DegandBELWanty – Groupe Gobert05:34:32  +  00:27:10=32,553 
8282 FRACyril GautierFRAAg2r La Mondiale05:34:32  +  00:27:10=32,553 
8383 ITAAndrea PasqualonBELWanty – Groupe Gobert05:34:32  +  00:27:10=32,553 
8484 FRAMaxime BouetFRAFortuneo - Vital Concept05:34:32  +  00:27:10=32,553 
8585 FRAJulien SimonFRACofidis – Solutions Crédits05:34:32  +  00:27:10=32,553 
8686 NZLPaddy BevinUSACannondale-Drapac Pro Cycling ..05:34:32  +  00:27:10=32,553 
8787 RSADaryl ImpeyAUSOrica - Scott05:34:32  +  00:27:10=32,553 
8888 ITAMarco MarcatoUAEUAE Team Emirates05:34:32  +  00:27:10=32,553 
8989 ITADario CataldoKAZAstana Pro Team05:34:32  +  00:27:10=32,553 
9090 PORTiago PintoCHETeam Katusha - Alpecin05:34:32  +  00:27:10=32,553 
9191 ITAMatteo BonoUAEUAE Team Emirates05:34:32  +  00:27:10=32,553 
9292 BELFrederik BackaertBELWanty – Groupe Gobert05:34:32  +  00:27:10=32,553 
9393 FRARomain SicardFRADirect Energie05:34:32  +  00:27:10=32,553 
9494 FRARomain HardyFRAFortuneo - Vital Concept05:34:32  +  00:27:10=32,553 
9595 FRARudy MolardFRAFDJ05:34:32  +  00:27:10=32,553 
9696 HRVRobert KiserlovskiCHETeam Katusha - Alpecin05:34:32  +  00:27:10=32,553 
9797 JPNYukiya ArashiroBHRBahrain-Merida05:34:32  +  00:27:10=32,553 
9898 ARGEduardo SepulvedaFRAFortuneo - Vital Concept05:34:32  +  00:27:10=32,553 
9999 ENGScott ThwaitesZAFDimension Data05:34:32  +  00:27:10=32,553 
100100 AUSMichael MatthewsDEUTeam Sunweb05:34:32  +  00:27:10=32,553 
101101 NOREdvald Boasson HagenZAFDimension Data05:34:32  +  00:27:10=32,553 
102102 POLPawel PoljanskiDEUBora–Hansgrohe05:34:32  +  00:27:10=32,553 
103103 USAAndrew TalanskyUSACannondale-Drapac Pro Cycling ..05:34:32  +  00:27:10=32,553 
104104 USANathan BrownUSACannondale-Drapac Pro Cycling ..05:34:32  +  00:27:10=32,553 
105105 NEDMaurits LammertinkCHETeam Katusha - Alpecin05:34:32  +  00:27:10=32,553 
106106 ESPJavier Moreno BazánBHRBahrain-Merida05:34:32  +  00:27:10=32,553 
107107 ESPImanol ErvitiESPMovistar Team05:34:32  +  00:27:10=32,553 
108108 FRAOlivier Le GacFRAFDJ05:34:32  +  00:27:10=32,553 
109109 COLDarwin AtapumaUAEUAE Team Emirates05:34:32  +  00:27:10=32,553 
110110 FRAFlorian VachonFRAFortuneo - Vital Concept05:34:32  +  00:27:10=32,553 
111111 AUSDamien HowsonAUSOrica - Scott05:34:32  +  00:27:10=32,553 
112112 UKRAndriy GrivkoKAZAstana Pro Team05:36:37  +  00:29:15=32,351 
113113 NEDTimo RoosenNLDTeam Lotto NL - Jumbo05:36:37  +  00:29:15=32,351 
114114 NZLDion SmithBELWanty – Groupe Gobert05:36:37  +  00:29:15=32,351 
115115 NZLJack BauerBELQuick-Step Floors05:36:37  +  00:29:15=32,351 
116116 SUIStefan KüngUSABMC Racing Team05:36:37  +  00:29:15=32,351 
117117 SUIMichael AlbasiniAUSOrica - Scott05:36:37  +  00:29:15=32,351 
118118 ITAAlberto BettiolUSACannondale-Drapac Pro Cycling ..05:36:37  +  00:29:15=32,351 
119119 COLJohan Esteban ChavesAUSOrica - Scott05:36:37  +  00:29:15=32,351 
120120 FRAAngelo TulikFRADirect Energie05:38:45  +  00:31:23=32,148 
121121 FRALilian CalmejaneFRADirect Energie05:38:45  +  00:31:23=32,148 
122122 BELGuillaume Van KeirsbulckBELWanty – Groupe Gobert05:38:45  +  00:31:23=32,148 
123123 SUIReto HollensteinCHETeam Katusha - Alpecin05:38:45  +  00:31:23=32,148 
124124 NEDRoy CurversDEUTeam Sunweb05:40:34  +  00:33:12=31,976 
125125 AUTMarco HallerCHETeam Katusha - Alpecin05:40:34  +  00:33:12=31,976 
126126 NEDAlbert TimmerDEUTeam Sunweb05:40:34  +  00:33:12=31,976 
127127 ESPMarkel IrizarUSATrek - Segafredo05:40:34  +  00:33:12=31,976 
128128 AUTMichael GoglUSATrek - Segafredo05:40:34  +  00:33:12=31,976 
129129 GERJasha SütterlinESPMovistar Team05:40:34  +  00:33:12=31,976 
130130 ITADaniele BennatiESPMovistar Team05:40:34  +  00:33:12=31,976 
131131 BELTim WellensBELLotto Soudal05:40:34  +  00:33:12=31,976 
132132 GERNikias ArndtDEUTeam Sunweb05:40:34  +  00:33:12=31,976 
133133 KAZDmitriy GruzdevKAZAstana Pro Team05:43:15  +  00:35:53=31,726 
134134 ETHTsgabu Gebremaryan GrmayBHRBahrain-Merida05:43:15  +  00:35:53=31,726 
135135 BLRVasil KiryienkaGBRSky Procycling05:43:33  +  00:36:11=31,698 
136136 POLMichal KwiatkowskiGBRSky Procycling05:43:43  +  00:36:21=31,683 
137137 POLRafal MajkaDEUBora–Hansgrohe05:43:43  +  00:36:21=31,683 
138138 ENGStephen CummingsZAFDimension Data05:44:48  +  00:37:26=31,584 
139139 WALLuke RoweGBRSky Procycling05:44:48  +  00:37:26=31,584 
140140 BELJulien VermoteBELQuick-Step Floors05:44:48  +  00:37:26=31,584 
141141 FRAAdrien PetitFRADirect Energie05:44:48  +  00:37:26=31,584 
142142 DDRRüdiger SeligDEUBora–Hansgrohe05:44:48  +  00:37:26=31,584 
143143 FRAThomas BoudatFRADirect Energie05:44:48  +  00:37:26=31,584 
144144 ITASonny ColbrelliBHRBahrain-Merida05:44:48  +  00:37:26=31,584 
145145 ENGBen SwiftUAEUAE Team Emirates05:44:48  +  00:37:26=31,584 
146146 AUSMathew HaymanAUSOrica - Scott05:44:48  +  00:37:26=31,584 
147147 GERJohn DegenkolbUSATrek - Segafredo05:44:48  +  00:37:26=31,584 
148148 FRAFlorian SénéchalFRACofidis – Solutions Crédits05:44:48  +  00:37:26=31,584 
149149 GERMarcel SiebergBELLotto Soudal05:44:48  +  00:37:26=31,584 
150150 FRACyril LemoineFRACofidis – Solutions Crédits05:44:48  +  00:37:26=31,584 
151151 BELJürgen RoelandtsBELLotto Soudal05:44:48  +  00:37:26=31,584 
152152 FRANacer BouhanniFRACofidis – Solutions Crédits05:44:48  +  00:37:26=31,584 
153153 ITAFabio SabatiniBELQuick-Step Floors05:44:48  +  00:37:26=31,584 
154154 GERMarcel KittelBELQuick-Step Floors05:44:48  +  00:37:26=31,584 
155155 GERAndré GreipelBELLotto Soudal05:44:48  +  00:37:26=31,584 
156156 AUTBernhard EiselZAFDimension Data05:44:48  +  00:37:26=31,584 
157157 POLMaciej BodnarDEUBora–Hansgrohe05:44:48  +  00:37:26=31,584 
158158 BELDimitri ClaeysFRACofidis – Solutions Crédits05:44:48  +  00:37:26=31,584 
159159 GERMarcus BurghardtDEUBora–Hansgrohe05:44:48  +  00:37:26=31,584 
160160 FRALaurent PichonFRAFortuneo - Vital Concept05:44:48  +  00:37:26=31,584 
161161 NEDTom LeezerNLDTeam Lotto NL - Jumbo05:44:48  +  00:37:26=31,584 
162162 RSAJaco VenterZAFDimension Data05:44:48  +  00:37:26=31,584 
163163 AUSJay McCarthyDEUBora–Hansgrohe05:44:48  +  00:37:26=31,584 
164164 GERChristian KneesGBRSky Procycling05:44:48  +  00:37:26=31,584 
165165 GERRick ZabelCHETeam Katusha - Alpecin05:44:48  +  00:37:26=31,584 
166166 SLOBorut BozicBHRBahrain-Merida05:44:48  +  00:37:26=31,584 
167167 GERRobert WagnerNLDTeam Lotto NL - Jumbo05:44:48  +  00:37:26=31,584 
168168 NEDRamon SinkeldamDEUTeam Sunweb05:44:48  +  00:37:26=31,584 
169169 ESPJesus HerradaESPMovistar Team05:44:48  +  00:37:26=31,584 
170170 NEDMike TeunissenDEUTeam Sunweb05:44:48  +  00:37:26=31,584 
171171 SLOGrega BoleBHRBahrain-Merida05:44:48  +  00:37:26=31,584 
172172 ITAFabio FellineUSATrek - Segafredo05:44:48  +  00:37:26=31,584 
173173 RSAReinardt Janse Van RensburgZAFDimension Data05:44:48  +  00:37:26=31,584 
174174 NORAlexander KristoffCHETeam Katusha - Alpecin05:44:48  +  00:37:26=31,584 
175175 USATaylor PhinneyUSACannondale-Drapac Pro Cycling ..05:44:48  +  00:37:26=31,584 
176176 NEDDylan GroenewegenNLDTeam Lotto NL - Jumbo05:44:48  +  00:37:26=31,584 
177177 FRAChristophe LaporteFRACofidis – Solutions Crédits05:44:48  +  00:37:26=31,584 
178178 ITADavide CimolaiFRAFDJ05:44:48  +  00:37:26=31,584 
179179 ENGDaniel McLayFRAFortuneo - Vital Concept05:44:48  +  00:37:26=31,584 
180180 FRAYohann GèneFRADirect Energie05:44:48  +  00:37:26=31,584 
181181 KAZAlexey LutsenkoKAZAstana Pro Team05:45:11  +  00:37:49=31,548 

Withdrawls: 12
 
Rider
Team
Reason
9  WALGeraint ThomasGBRSky ProcyclingDid not finish
41  AUSRichie PorteUSABMC Racing TeamDid not finish
67  ITAManuele MoriUAEUAE Team EmiratesDid not finish
71  FRAArnaud DémareFRAFDJExceeded time limit
73  FRAMickael DelageFRAFDJExceeded time limit
74  ITAJacopo GuarnieriFRAFDJExceeded time limit
75  URSIgnatas KonovalovasFRAFDJExceeded time limit
97  AUSMark RenshawZAFDimension DataExceeded time limit
108  ITAMatteo TrentinBELQuick-Step FloorsExceeded time limit
118  SVKJuraj SaganDEUBora–HansgroheExceeded time limit
161  NEDRobert GesinkNLDTeam Lotto NL - JumboDid not finish
168  NEDJos Van EmdenNLDTeam Lotto NL - JumboDid not finish
Todays birthdays.

1878  Jean Novo
1883  Jules Chabas
1890  Ange Aubry
1893  Roger Marye
1913  Paul Maye
1914  Lucien Vlaemynck
1915  Alphonse Antoine
1932  Rolf Graf
1953  Julio Rubiano
1959  Jos Haex
1959  Gerard Veldscholten
1963  Pablo Moreno
1964  Juan Castillo
1977  Iban Mayo
1994  Fernando Gaviria